sensor_id;sensor_type;location;lat;lon;timestamp;pressure;altitude;pressure_sealevel;temperature;humidity
23016;BME280;11674;52.428;13.584;2023-03-22T00:04:19;100920.69;;;12.41;78.56
23016;BME280;11674;52.428;13.584;2023-03-22T00:09:26;100924.38;;;12.36;78.35
23016;BME280;11674;52.428;13.584;2023-03-22T00:14:33;100924.75;;;12.30;78.42
23016;BME280;11674;52.428;13.584;2023-03-22T00:19:40;100920.59;;;12.27;78.36
23016;BME280;11674;52.428;13.584;2023-03-22T00:24:47;100912.53;;;12.26;78.52
23016;BME280;11674;52.428;13.584;2023-03-22T00:29:54;100912.03;;;12.24;78.75
23016;BME280;11674;52.428;13.584;2023-03-22T00:35:02;100906.22;;;12.20;78.78
23016;BME280;11674;52.428;13.584;2023-03-22T00:40:13;100904.66;;;12.14;79.00
23016;BME280;11674;52.428;13.584;2023-03-22T00:45:20;100911.06;;;12.10;79.07
23016;BME280;11674;52.428;13.584;2023-03-22T00:50:27;100902.44;;;12.11;79.47
23016;BME280;11674;52.428;13.584;2023-03-22T00:55:34;100899.66;;;12.11;79.37
23016;BME280;11674;52.428;13.584;2023-03-22T01:00:41;100896.13;;;12.06;79.40
23016;BME280;11674;52.428;13.584;2023-03-22T01:05:48;100887.25;;;12.04;79.40
23016;BME280;11674;52.428;13.584;2023-03-22T01:10:55;100899.50;;;12.03;79.49
23016;BME280;11674;52.428;13.584;2023-03-22T01:16:03;100905.56;;;12.05;79.85
23016;BME280;11674;52.428;13.584;2023-03-22T01:21:10;100885.25;;;12.09;79.75
23016;BME280;11674;52.428;13.584;2023-03-22T01:26:17;100886.38;;;12.08;79.91
23016;BME280;11674;52.428;13.584;2023-03-22T01:31:24;100885.53;;;12.08;79.94
23016;BME280;11674;52.428;13.584;2023-03-22T01:36:31;100883.88;;;12.07;79.85
23016;BME280;11674;52.428;13.584;2023-03-22T01:41:38;100865.56;;;12.06;79.96
23016;BME280;11674;52.428;13.584;2023-03-22T01:46:50;100865.56;;;12.06;79.96
23016;BME280;11674;52.428;13.584;2023-03-22T01:52:02;100856.66;;;12.04;80.17
23016;BME280;11674;52.428;13.584;2023-03-22T01:57:46;100858.31;;;12.05;80.20
23016;BME280;11674;52.428;13.584;2023-03-22T02:03:03;100847.56;;;11.98;80.29
23016;BME280;11674;52.428;13.584;2023-03-22T02:08:17;100838.16;;;11.94;80.07
23016;BME280;11674;52.428;13.584;2023-03-22T02:14:27;100839.06;;;11.90;80.10
23016;BME280;11674;52.428;13.584;2023-03-22T02:19:55;100832.44;;;11.86;80.35
23016;BME280;11674;52.428;13.584;2023-03-22T02:47:10;100837.44;;;11.65;80.22
23016;BME280;11674;52.428;13.584;2023-03-22T02:52:25;100836.06;;;11.63;80.30
23016;BME280;11674;52.428;13.584;2023-03-22T02:57:40;100825.53;;;11.60;80.07
23016;BME280;11674;52.428;13.584;2023-03-22T03:02:53;100823.91;;;11.54;80.24
23016;BME280;11674;52.428;13.584;2023-03-22T03:08:06;100824.88;;;11.44;79.98
23016;BME280;11674;52.428;13.584;2023-03-22T03:13:17;100815.22;;;11.37;80.08
23016;BME280;11674;52.428;13.584;2023-03-22T03:18:46;100819.75;;;11.28;79.91
23016;BME280;11674;52.428;13.584;2023-03-22T03:24:06;100819.03;;;11.17;80.04
23016;BME280;11674;52.428;13.584;2023-03-22T03:29:31;100820.50;;;11.10;80.16
23016;BME280;11674;52.428;13.584;2023-03-22T03:34:47;100810.25;;;11.05;80.06
23016;BME280;11674;52.428;13.584;2023-03-22T03:40:09;100826.72;;;10.97;80.28
23016;BME280;11674;52.428;13.584;2023-03-22T03:45:18;100820.44;;;10.86;80.31
23016;BME280;11674;52.428;13.584;2023-03-22T03:50:26;100830.19;;;10.84;80.52
23016;BME280;11674;52.428;13.584;2023-03-22T03:55:34;100825.19;;;10.81;80.21
23016;BME280;11674;52.428;13.584;2023-03-22T04:00:42;100824.13;;;10.77;80.45
23016;BME280;11674;52.428;13.584;2023-03-22T04:06:12;100824.97;;;10.77;80.29
23016;BME280;11674;52.428;13.584;2023-03-22T04:11:24;100825.84;;;10.73;79.98
23016;BME280;11674;52.428;13.584;2023-03-22T04:16:34;100824.22;;;10.67;79.94
23016;BME280;11674;52.428;13.584;2023-03-22T04:21:44;100821.22;;;10.58;80.09
23016;BME280;11674;52.428;13.584;2023-03-22T04:26:51;100832.06;;;10.55;80.41
23016;BME280;11674;52.428;13.584;2023-03-22T04:32:04;100825.34;;;10.61;80.70
23016;BME280;11674;52.428;13.584;2023-03-22T04:37:15;100829.78;;;10.67;80.59
23016;BME280;11674;52.428;13.584;2023-03-22T04:42:30;100824.47;;;10.70;80.99
23016;BME280;11674;52.428;13.584;2023-03-22T04:47:44;100824.44;;;10.75;80.96
23016;BME280;11674;52.428;13.584;2023-03-22T04:52:51;100825.78;;;10.78;80.91
23016;BME280;11674;52.428;13.584;2023-03-22T04:57:59;100824.13;;;10.77;80.92
23016;BME280;11674;52.428;13.584;2023-03-22T05:03:06;100818.03;;;10.75;80.81
23016;BME280;11674;52.428;13.584;2023-03-22T05:08:19;100816.09;;;10.75;81.16
23016;BME280;11674;52.428;13.584;2023-03-22T05:13:26;100801.88;;;10.82;81.19
23016;BME280;11674;52.428;13.584;2023-03-22T05:18:33;100803.25;;;10.84;81.17
23016;BME280;11674;52.428;13.584;2023-03-22T05:23:41;100796.88;;;10.84;81.15
23016;BME280;11674;52.428;13.584;2023-03-22T05:28:49;100787.72;;;10.83;81.25
23016;BME280;11674;52.428;13.584;2023-03-22T05:34:09;100798.53;;;10.85;81.14
23016;BME280;11674;52.428;13.584;2023-03-22T05:39:24;100795.47;;;10.86;81.21
23016;BME280;11674;52.428;13.584;2023-03-22T05:44:32;100794.59;;;10.91;81.30
23016;BME280;11674;52.428;13.584;2023-03-22T05:49:43;100786.50;;;10.94;81.06
23016;BME280;11674;52.428;13.584;2023-03-22T05:54:51;100794.81;;;10.94;81.35
23016;BME280;11674;52.428;13.584;2023-03-22T05:59:58;100792.91;;;10.95;81.31
23016;BME280;11674;52.428;13.584;2023-03-22T06:05:14;100778.34;;;11.03;81.44
23016;BME280;11674;52.428;13.584;2023-03-22T06:10:24;100781.38;;;11.06;81.40
23016;BME280;11674;52.428;13.584;2023-03-22T06:15:31;100777.19;;;11.09;81.35
23016;BME280;11674;52.428;13.584;2023-03-22T06:20:41;100780.22;;;11.12;81.60
23016;BME280;11674;52.428;13.584;2023-03-22T06:25:53;100780.97;;;11.18;81.54
23016;BME280;11674;52.428;13.584;2023-03-22T06:31:05;100783.72;;;11.23;81.66
23016;BME280;11674;52.428;13.584;2023-03-22T06:36:31;100778.63;;;11.30;81.67
23016;BME280;11674;52.428;13.584;2023-03-22T06:41:52;100777.69;;;11.39;81.91
23016;BME280;11674;52.428;13.584;2023-03-22T06:46:59;100781.78;;;11.47;81.59
23016;BME280;11674;52.428;13.584;2023-03-22T06:52:20;100796.41;;;11.52;81.66
23016;BME280;11674;52.428;13.584;2023-03-22T06:57:28;100805.25;;;11.59;81.97
23016;BME280;11674;52.428;13.584;2023-03-22T07:02:35;100796.34;;;11.62;81.91
23016;BME280;11674;52.428;13.584;2023-03-22T07:08:05;100803.47;;;11.68;81.97
23016;BME280;11674;52.428;13.584;2023-03-22T07:13:18;100800.63;;;11.73;81.90
23016;BME280;11674;52.428;13.584;2023-03-22T07:18:29;100794.72;;;11.80;82.22
23016;BME280;11674;52.428;13.584;2023-03-22T07:23:36;100792.47;;;11.82;81.92
23016;BME280;11674;52.428;13.584;2023-03-22T07:28:47;100789.31;;;11.88;82.27
23016;BME280;11674;52.428;13.584;2023-03-22T07:34:00;100792.03;;;11.93;82.26
23016;BME280;11674;52.428;13.584;2023-03-22T07:39:16;100791.84;;;12.08;82.50
23016;BME280;11674;52.428;13.584;2023-03-22T07:44:23;100785.22;;;12.23;82.25
23016;BME280;11674;52.428;13.584;2023-03-22T07:49:50;100776.03;;;12.41;82.30
23016;BME280;11674;52.428;13.584;2023-03-22T07:55:04;100776.63;;;12.56;82.38
23016;BME280;11674;52.428;13.584;2023-03-22T08:00:11;100784.47;;;12.68;82.60
23016;BME280;11674;52.428;13.584;2023-03-22T08:05:29;100777.41;;;12.75;82.27
23016;BME280;11674;52.428;13.584;2023-03-22T08:10:38;100769.72;;;12.86;82.41
23016;BME280;11674;52.428;13.584;2023-03-22T08:15:45;100771.41;;;13.00;82.63
23016;BME280;11674;52.428;13.584;2023-03-22T08:20:58;100760.09;;;13.24;82.71
23016;BME280;11674;52.428;13.584;2023-03-22T08:26:08;100755.88;;;13.53;82.52
23016;BME280;11674;52.428;13.584;2023-03-22T08:31:16;100762.78;;;13.83;82.58
23016;BME280;11674;52.428;13.584;2023-03-22T08:36:23;100755.50;;;14.09;82.40
23016;BME280;11674;52.428;13.584;2023-03-22T08:41:37;100739.63;;;14.31;82.54
23016;BME280;11674;52.428;13.584;2023-03-22T08:46:45;100730.44;;;14.53;82.15
23016;BME280;11674;52.428;13.584;2023-03-22T08:51:52;100738.81;;;14.53;81.53
23016;BME280;11674;52.428;13.584;2023-03-22T08:57:22;100724.78;;;14.66;81.70
23016;BME280;11674;52.428;13.584;2023-03-22T09:02:58;100717.34;;;14.84;81.67
23016;BME280;11674;52.428;13.584;2023-03-22T09:08:05;100714.16;;;14.99;81.54
23016;BME280;11674;52.428;13.584;2023-03-22T09:13:15;100716.16;;;15.07;81.24
23016;BME280;11674;52.428;13.584;2023-03-22T09:18:29;100692.53;;;15.21;81.48
23016;BME280;11674;52.428;13.584;2023-03-22T09:23:43;100688.44;;;15.27;80.74
23016;BME280;11674;52.428;13.584;2023-03-22T09:28:51;100679.66;;;15.42;80.43
23016;BME280;11674;52.428;13.584;2023-03-22T09:33:58;100693.34;;;15.61;80.52
23016;BME280;11674;52.428;13.584;2023-03-22T09:39:05;100680.72;;;15.72;79.82
23016;BME280;11674;52.428;13.584;2023-03-22T09:44:18;100675.78;;;15.77;79.19
23016;BME280;11674;52.428;13.584;2023-03-22T09:49:29;100682.88;;;16.00;78.40
23016;BME280;11674;52.428;13.584;2023-03-22T09:54:40;100679.41;;;16.37;78.40
23016;BME280;11674;52.428;13.584;2023-03-22T10:05:34;100671.84;;;16.63;77.60
23016;BME280;11674;52.428;13.584;2023-03-22T10:10:44;100673.00;;;16.62;77.64
23016;BME280;11674;52.428;13.584;2023-03-22T10:15:56;100672.84;;;16.59;76.80
23016;BME280;11674;52.428;13.584;2023-03-22T10:21:14;100665.00;;;16.81;77.08
23016;BME280;11674;52.428;13.584;2023-03-22T10:26:28;100658.19;;;17.08;76.47
23016;BME280;11674;52.428;13.584;2023-03-22T10:31:37;100654.44;;;17.24;76.01
23016;BME280;11674;52.428;13.584;2023-03-22T10:36:49;100639.25;;;17.34;75.64
23016;BME280;11674;52.428;13.584;2023-03-22T10:42:03;100636.91;;;17.44;74.85
23016;BME280;11674;52.428;13.584;2023-03-22T10:47:11;100631.97;;;17.41;74.12
23016;BME280;11674;52.428;13.584;2023-03-22T10:57:37;100614.41;;;17.53;73.01
23016;BME280;11674;52.428;13.584;2023-03-22T11:02:52;100606.41;;;17.63;72.09
23016;BME280;11674;52.428;13.584;2023-03-22T11:08:01;100587.66;;;17.76;70.99
23016;BME280;11674;52.428;13.584;2023-03-22T11:18:16;100598.75;;;17.93;69.52
23016;BME280;11674;52.428;13.584;2023-03-22T11:23:24;100587.16;;;17.94;68.80
23016;BME280;11674;52.428;13.584;2023-03-22T11:28:50;100587.91;;;18.03;68.45
23016;BME280;11674;52.428;13.584;2023-03-22T11:33:59;100574.34;;;18.05;67.46
23016;BME280;11674;52.428;13.584;2023-03-22T11:39:07;100573.53;;;18.05;66.69
23016;BME280;11674;52.428;13.584;2023-03-22T11:44:16;100561.88;;;17.94;65.78
23016;BME280;11674;52.428;13.584;2023-03-22T11:49:32;100572.06;;;17.87;65.15
23016;BME280;11674;52.428;13.584;2023-03-22T11:54:44;100571.06;;;18.03;65.89
23016;BME280;11674;52.428;13.584;2023-03-22T12:00:22;100573.41;;;18.01;65.03
23016;BME280;11674;52.428;13.584;2023-03-22T12:05:33;100557.34;;;18.22;64.86
23016;BME280;11674;52.428;13.584;2023-03-22T12:10:48;100567.78;;;18.34;62.96
23016;BME280;11674;52.428;13.584;2023-03-22T12:16:04;100541.25;;;18.43;62.23
23016;BME280;11674;52.428;13.584;2023-03-22T12:21:11;100540.72;;;18.98;62.30
23016;BME280;11674;52.428;13.584;2023-03-22T12:26:23;100525.94;;;19.37;61.42
23016;BME280;11674;52.428;13.584;2023-03-22T12:31:36;100525.94;;;19.25;60.56
23016;BME280;11674;52.428;13.584;2023-03-22T12:36:47;100514.84;;;19.28;60.39
23016;BME280;11674;52.428;13.584;2023-03-22T12:42:00;100519.34;;;19.45;58.94
23016;BME280;11674;52.428;13.584;2023-03-22T12:47:17;100502.66;;;19.64;58.59
23016;BME280;11674;52.428;13.584;2023-03-22T12:57:44;100474.84;;;19.90;58.43
23016;BME280;11674;52.428;13.584;2023-03-22T13:08:11;100475.41;;;20.23;56.42
23016;BME280;11674;52.428;13.584;2023-03-22T13:18:29;100469.94;;;19.87;55.80
23016;BME280;11674;52.428;13.584;2023-03-22T13:29:10;100469.63;;;19.49;55.42
23016;BME280;11674;52.428;13.584;2023-03-22T13:34:38;100467.69;;;19.25;55.17
23016;BME280;11674;52.428;13.584;2023-03-22T13:39:57;100464.78;;;19.10;55.55
23016;BME280;11674;52.428;13.584;2023-03-22T13:45:16;100442.31;;;19.49;55.71
23016;BME280;11674;52.428;13.584;2023-03-22T13:50:34;100444.50;;;19.99;54.65
23016;BME280;11674;52.428;13.584;2023-03-22T14:00:55;100448.44;;;19.67;53.76
23016;BME280;11674;52.428;13.584;2023-03-22T14:06:23;100444.50;;;19.83;53.71
23016;BME280;11674;52.428;13.584;2023-03-22T14:11:38;100450.56;;;20.13;53.58
23016;BME280;11674;52.428;13.584;2023-03-22T14:16:53;100437.94;;;20.07;53.43
23016;BME280;11674;52.428;13.584;2023-03-22T14:22:06;100427.88;;;19.94;53.62
23016;BME280;11674;52.428;13.584;2023-03-22T14:27:17;100424.78;;;19.99;53.91
23016;BME280;11674;52.428;13.584;2023-03-22T14:32:26;100427.47;;;20.07;53.53
23016;BME280;11674;52.428;13.584;2023-03-22T14:37:34;100423.31;;;20.48;54.04
23016;BME280;11674;52.428;13.584;2023-03-22T14:42:41;100420.28;;;20.72;53.68
23016;BME280;11674;52.428;13.584;2023-03-22T14:47:48;100426.94;;;20.64;54.01
23016;BME280;11674;52.428;13.584;2023-03-22T14:52:55;100425.19;;;20.59;53.85
23016;BME280;11674;52.428;13.584;2023-03-22T14:58:02;100426.03;;;20.29;53.48
23016;BME280;11674;52.428;13.584;2023-03-22T15:03:21;100421.72;;;19.88;53.17
23016;BME280;11674;52.428;13.584;2023-03-22T15:08:31;100417.44;;;19.79;53.15
23016;BME280;11674;52.428;13.584;2023-03-22T15:13:39;100414.00;;;19.58;53.58
23016;BME280;11674;52.428;13.584;2023-03-22T15:18:48;100410.34;;;19.42;53.39
23016;BME280;11674;52.428;13.584;2023-03-22T15:24:11;100414.69;;;19.39;52.90
23016;BME280;11674;52.428;13.584;2023-03-22T15:29:23;100397.22;;;19.34;53.27
23016;BME280;11674;52.428;13.584;2023-03-22T15:34:31;100403.84;;;19.26;53.39
23016;BME280;11674;52.428;13.584;2023-03-22T15:39:40;100401.13;;;19.17;53.64
23016;BME280;11674;52.428;13.584;2023-03-22T15:49:57;100394.03;;;18.96;54.42
23016;BME280;11674;52.428;13.584;2023-03-22T15:55:12;100394.72;;;18.93;54.48
23016;BME280;11674;52.428;13.584;2023-03-22T16:00:21;100397.81;;;18.88;53.99
23016;BME280;11674;52.428;13.584;2023-03-22T16:05:28;100412.22;;;18.86;53.87
23016;BME280;11674;52.428;13.584;2023-03-22T16:10:37;100403.56;;;18.79;53.50
23016;BME280;11674;52.428;13.584;2023-03-22T16:15:51;100413.63;;;18.68;52.61
23016;BME280;11674;52.428;13.584;2023-03-22T16:20:58;100425.94;;;18.64;52.23
23016;BME280;11674;52.428;13.584;2023-03-22T16:26:11;100406.75;;;18.54;52.28
23016;BME280;11674;52.428;13.584;2023-03-22T16:31:20;100410.63;;;18.49;52.48
23016;BME280;11674;52.428;13.584;2023-03-22T16:36:27;100420.91;;;18.45;52.75
23016;BME280;11674;52.428;13.584;2023-03-22T16:41:38;100419.88;;;18.38;52.35
23016;BME280;11674;52.428;13.584;2023-03-22T16:46:45;100431.63;;;18.31;52.87
23016;BME280;11674;52.428;13.584;2023-03-22T16:51:52;100425.69;;;18.21;52.67
23016;BME280;11674;52.428;13.584;2023-03-22T16:56:59;100443.09;;;18.14;52.96
23016;BME280;11674;52.428;13.584;2023-03-22T17:02:23;100438.75;;;18.05;53.06
23016;BME280;11674;52.428;13.584;2023-03-22T17:07:31;100448.91;;;17.97;52.85
23016;BME280;11674;52.428;13.584;2023-03-22T17:12:39;100444.91;;;17.86;53.01
23016;BME280;11674;52.428;13.584;2023-03-22T17:17:45;100458.09;;;17.74;53.22
23016;BME280;11674;52.428;13.584;2023-03-22T17:22:54;100464.00;;;17.60;53.46
23016;BME280;11674;52.428;13.584;2023-03-22T17:28:03;100454.03;;;17.51;54.19
23016;BME280;11674;52.428;13.584;2023-03-22T17:33:10;100461.69;;;17.42;54.00
23016;BME280;11674;52.428;13.584;2023-03-22T17:38:18;100462.56;;;17.34;54.40
23016;BME280;11674;52.428;13.584;2023-03-22T17:43:27;100471.84;;;17.26;53.93
23016;BME280;11674;52.428;13.584;2023-03-22T17:48:33;100470.88;;;17.22;54.20
23016;BME280;11674;52.428;13.584;2023-03-22T17:53:40;100475.56;;;17.18;54.07
23016;BME280;11674;52.428;13.584;2023-03-22T17:58:47;100479.88;;;17.15;53.96
23016;BME280;11674;52.428;13.584;2023-03-22T18:03:54;100484.50;;;17.11;53.93
23016;BME280;11674;52.428;13.584;2023-03-22T18:09:02;100483.69;;;17.11;53.73
23016;BME280;11674;52.428;13.584;2023-03-22T18:14:08;100482.03;;;17.10;54.13
23016;BME280;11674;52.428;13.584;2023-03-22T18:19:15;100476.94;;;17.12;54.65
23016;BME280;11674;52.428;13.584;2023-03-22T18:24:23;100478.91;;;17.11;55.01
23016;BME280;11674;52.428;13.584;2023-03-22T18:29:30;100493.44;;;17.05;55.01
23016;BME280;11674;52.428;13.584;2023-03-22T18:34:38;100498.78;;;16.98;54.81
23016;BME280;11674;52.428;13.584;2023-03-22T18:39:46;100498.00;;;16.89;54.97
23016;BME280;11674;52.428;13.584;2023-03-22T18:44:52;100499.84;;;16.85;55.01
23016;BME280;11674;52.428;13.584;2023-03-22T18:50:00;100510.09;;;16.81;55.09
23016;BME280;11674;52.428;13.584;2023-03-22T18:55:07;100502.34;;;16.78;55.67
23016;BME280;11674;52.428;13.584;2023-03-22T19:00:14;100501.19;;;16.79;55.76
23016;BME280;11674;52.428;13.584;2023-03-22T19:05:28;100500.25;;;16.75;55.83
23016;BME280;11674;52.428;13.584;2023-03-22T19:10:35;100507.88;;;16.66;55.77
23016;BME280;11674;52.428;13.584;2023-03-22T19:15:42;100514.00;;;16.59;56.26
23016;BME280;11674;52.428;13.584;2023-03-22T19:20:49;100508.56;;;16.54;56.24
23016;BME280;11674;52.428;13.584;2023-03-22T19:25:56;100494.91;;;16.53;56.21
23016;BME280;11674;52.428;13.584;2023-03-22T19:31:04;100484.84;;;16.52;55.54
23016;BME280;11674;52.428;13.584;2023-03-22T19:36:10;100477.28;;;16.52;55.87
23016;BME280;11674;52.428;13.584;2023-03-22T19:41:17;100474.16;;;16.54;56.20
23016;BME280;11674;52.428;13.584;2023-03-22T19:46:24;100470.19;;;16.55;56.39
23016;BME280;11674;52.428;13.584;2023-03-22T19:51:31;100468.56;;;16.54;56.43
23016;BME280;11674;52.428;13.584;2023-03-22T19:56:39;100465.75;;;16.54;56.83
23016;BME280;11674;52.428;13.584;2023-03-22T20:01:45;100461.78;;;16.55;56.88
23016;BME280;11674;52.428;13.584;2023-03-22T20:06:52;100464.72;;;16.58;57.21
23016;BME280;11674;52.428;13.584;2023-03-22T20:11:59;100477.56;;;16.59;57.22
23016;BME280;11674;52.428;13.584;2023-03-22T20:17:06;100474.50;;;16.52;57.27
23016;BME280;11674;52.428;13.584;2023-03-22T20:22:14;100469.91;;;16.48;57.69
23016;BME280;11674;52.428;13.584;2023-03-22T20:27:20;100461.84;;;16.46;57.70
23016;BME280;11674;52.428;13.584;2023-03-22T20:32:28;100462.03;;;16.41;57.90
23016;BME280;11674;52.428;13.584;2023-03-22T20:37:38;100455.59;;;16.41;57.61
23016;BME280;11674;52.428;13.584;2023-03-22T20:42:45;100450.66;;;16.38;58.00
23016;BME280;11674;52.428;13.584;2023-03-22T20:47:52;100443.25;;;16.33;57.90
23016;BME280;11674;52.428;13.584;2023-03-22T20:52:59;100439.69;;;16.24;57.82
23016;BME280;11674;52.428;13.584;2023-03-22T20:58:07;100436.91;;;16.16;57.90
23016;BME280;11674;52.428;13.584;2023-03-22T21:03:13;100428.88;;;16.06;58.05
23016;BME280;11674;52.428;13.584;2023-03-22T21:08:20;100420.16;;;15.99;58.17
23016;BME280;11674;52.428;13.584;2023-03-22T21:13:31;100436.34;;;15.93;58.16
23016;BME280;11674;52.428;13.584;2023-03-22T21:18:39;100434.03;;;15.87;57.99
23016;BME280;11674;52.428;13.584;2023-03-22T21:23:45;100433.91;;;15.83;58.35
23016;BME280;11674;52.428;13.584;2023-03-22T21:28:52;100430.44;;;15.78;58.12
23016;BME280;11674;52.428;13.584;2023-03-22T21:34:00;100429.47;;;15.74;58.18
23016;BME280;11674;52.428;13.584;2023-03-22T21:39:07;100428.03;;;15.68;58.48
23016;BME280;11674;52.428;13.584;2023-03-22T21:44:17;100430.16;;;15.62;58.03
23016;BME280;11674;52.428;13.584;2023-03-22T21:49:24;100413.56;;;15.57;58.19
23016;BME280;11674;52.428;13.584;2023-03-22T21:54:31;100415.22;;;15.50;58.38
23016;BME280;11674;52.428;13.584;2023-03-22T21:59:38;100410.94;;;15.44;58.70
23016;BME280;11674;52.428;13.584;2023-03-22T22:04:45;100409.81;;;15.36;58.67
23016;BME280;11674;52.428;13.584;2023-03-22T22:09:53;100412.56;;;15.28;58.80
23016;BME280;11674;52.428;13.584;2023-03-22T22:15:00;100401.25;;;15.24;58.70
23016;BME280;11674;52.428;13.584;2023-03-22T22:20:07;100388.59;;;15.18;58.64
23016;BME280;11674;52.428;13.584;2023-03-22T22:25:16;100386.78;;;15.14;58.62
23016;BME280;11674;52.428;13.584;2023-03-22T22:30:24;100377.91;;;15.12;58.86
23016;BME280;11674;52.428;13.584;2023-03-22T22:35:30;100372.97;;;15.09;58.44
23016;BME280;11674;52.428;13.584;2023-03-22T22:40:44;100370.38;;;15.04;58.73
23016;BME280;11674;52.428;13.584;2023-03-22T22:45:51;100366.75;;;15.03;58.71
23016;BME280;11674;52.428;13.584;2023-03-22T22:51:06;100358.69;;;15.02;58.67
23016;BME280;11674;52.428;13.584;2023-03-22T22:56:15;100373.31;;;14.99;58.79
23016;BME280;11674;52.428;13.584;2023-03-22T23:01:22;100374.44;;;14.98;59.11
23016;BME280;11674;52.428;13.584;2023-03-22T23:06:29;100359.69;;;14.97;58.67
23016;BME280;11674;52.428;13.584;2023-03-22T23:11:37;100358.84;;;14.97;58.85
23016;BME280;11674;52.428;13.584;2023-03-22T23:16:43;100370.03;;;14.97;59.09
23016;BME280;11674;52.428;13.584;2023-03-22T23:21:52;100355.56;;;14.95;58.96
23016;BME280;11674;52.428;13.584;2023-03-22T23:27:00;100343.88;;;14.93;58.99
23016;BME280;11674;52.428;13.584;2023-03-22T23:32:06;100344.72;;;14.93;59.31
23016;BME280;11674;52.428;13.584;2023-03-22T23:37:13;100345.06;;;14.92;58.81
23016;BME280;11674;52.428;13.584;2023-03-22T23:42:21;100342.41;;;14.87;58.95
23016;BME280;11674;52.428;13.584;2023-03-22T23:47:27;100352.78;;;14.78;59.04
23016;BME280;11674;52.428;13.584;2023-03-22T23:52:34;100350.97;;;14.73;59.30
23016;BME280;11674;52.428;13.584;2023-03-22T23:57:41;100339.16;;;14.68;59.14
